Time;durP1;ratioP1;P1;durP2;ratioP2;P2;SDS_P1;SDS_P2;PMS_P1;PMS_P2;Temp;Humidity;BMP_temperature;BMP_pressure;BME280_temperature;BME280_humidity;BME280_pressure;Samples;Min_cycle;Max_cycle;Signal;HPM_P1;HPM_P2
2024/01/31 00:00:23;;;;;;;11.97;3.23;;;26.90;76.10;;;;;;5064087;28;20546;-70
2024/01/31 00:02:50;;;;;;;12.70;3.10;;;27.20;75.30;;;;;;5061594;28;20195;-74
2024/01/31 00:05:17;;;;;;;12.50;3.57;;;27.30;73.80;;;;;;5066632;28;20190;-71
2024/01/31 00:07:45;;;;;;;13.10;2.93;;;27.20;74.10;;;;;;5065558;28;20305;-71
2024/01/31 00:10:12;;;;;;;11.13;3.40;;;27.30;73.60;;;;;;5069605;28;20187;-70
2024/01/31 00:12:40;;;;;;;11.23;2.87;;;27.60;73.30;;;;;;5062401;28;20696;-72
2024/01/31 00:15:07;;;;;;;12.70;3.50;;;27.80;72.90;;;;;;5062129;28;20646;-70
2024/01/31 00:17:35;;;;;;;13.70;3.17;;;27.80;72.20;;;;;;5071910;28;20680;-70
2024/01/31 00:20:02;;;;;;;11.80;2.93;;;27.80;72.70;;;;;;5067799;28;20210;-72
2024/01/31 00:22:30;;;;;;;15.47;2.90;;;27.70;72.80;;;;;;5067185;28;20190;-72
2024/01/31 00:24:57;;;;;;;11.87;2.97;;;27.80;72.30;;;;;;5069928;28;20179;-73
2024/01/31 00:27:24;;;;;;;10.47;2.57;;;28.00;72.10;;;;;;5062826;28;20294;-71
2024/01/31 00:29:52;;;;;;;12.67;2.67;;;28.30;70.70;;;;;;5069093;28;20214;-70
2024/01/31 00:32:19;;;;;;;10.60;2.53;;;28.20;70.30;;;;;;5064720;28;20274;-73
2024/01/31 00:34:46;;;;;;;10.40;2.63;;;28.30;70.80;;;;;;5064852;28;20215;-72
2024/01/31 00:37:14;;;;;;;12.83;2.80;;;28.10;70.60;;;;;;5064238;28;20191;-72
2024/01/31 00:39:41;;;;;;;10.17;2.30;;;28.20;70.80;;;;;;5069921;28;20577;-72
2024/01/31 00:42:09;;;;;;;15.30;3.30;;;28.40;70.40;;;;;;5062128;28;20263;-72
2024/01/31 00:44:36;;;;;;;15.33;2.77;;;28.70;70.30;;;;;;5060295;28;20184;-72
2024/01/31 00:47:03;;;;;;;9.00;2.40;;;28.70;67.70;;;;;;5069379;28;20541;-72
2024/01/31 00:49:31;;;;;;;10.30;2.30;;;28.50;68.70;;;;;;5069017;28;20207;-71
2024/01/31 00:51:58;;;;;;;9.90;2.57;;;28.30;69.90;;;;;;5063567;28;20277;-71
2024/01/31 00:54:25;;;;;;;8.87;2.57;;;28.20;70.30;;;;;;5064808;28;20275;-72
2024/01/31 00:56:53;;;;;;;14.27;2.83;;;28.10;70.70;;;;;;5070675;28;20192;-71
2024/01/31 00:59:20;;;;;;;9.63;2.23;;;28.10;70.80;;;;;;5063704;28;20271;-72
2024/01/31 01:01:47;;;;;;;10.53;2.30;;;28.20;70.30;;;;;;5059144;28;20241;-73
2024/01/31 01:04:15;;;;;;;10.03;2.40;;;28.20;70.40;;;;;;5064206;28;20179;-73
2024/01/31 01:06:42;;;;;;;8.80;2.33;;;28.40;69.70;;;;;;5067716;28;20237;-71
2024/01/31 01:09:11;;;;;;;6.93;2.27;;;28.50;69.20;;;;;;5064491;28;20188;-72
2024/01/31 01:11:38;;;;;;;8.60;2.30;;;28.70;68.60;;;;;;5069102;28;20637;-73
2024/01/31 01:14:06;;;;;;;12.30;2.40;;;28.70;68.90;;;;;;5067264;28;20183;-71
2024/01/31 01:16:33;;;;;;;12.83;2.50;;;28.70;68.20;;;;;;5065721;28;20171;-69
2024/01/31 01:19:02;;;;;;;7.80;2.07;;;28.80;68.80;;;;;;5065204;28;20183;-76
2024/01/31 01:21:29;;;;;;;14.93;2.90;;;28.50;68.70;;;;;;5066000;28;20183;-71
2024/01/31 01:23:57;;;;;;;9.93;2.23;;;28.70;69.80;;;;;;5068612;28;20183;-71
2024/01/31 01:26:24;;;;;;;9.10;2.10;;;29.10;68.30;;;;;;5063567;28;20215;-72
2024/01/31 01:28:52;;;;;;;8.53;2.50;;;29.10;67.00;;;;;;5070903;28;20222;-73
2024/01/31 01:31:19;;;;;;;9.27;2.30;;;28.90;67.10;;;;;;5067703;28;20269;-72
2024/01/31 01:33:46;;;;;;;8.20;2.20;;;28.60;67.90;;;;;;5067854;28;20179;-71
2024/01/31 01:36:15;;;;;;;10.37;2.40;;;28.40;68.40;;;;;;5066921;28;20251;-72
2024/01/31 01:38:42;;;;;;;10.60;2.70;;;28.30;69.30;;;;;;5067495;28;20184;-73
2024/01/31 01:41:09;;;;;;;8.90;2.10;;;28.40;69.90;;;;;;5064666;28;20202;-73
2024/01/31 01:43:42;;;;;;;11.00;2.40;;;28.40;69.30;;;;;;5067790;28;20171;-76
2024/01/31 01:46:18;;;;;;;11.23;2.90;;;27.90;70.50;;;;;;5069246;28;20235;-73
2024/01/31 01:48:46;;;;;;;14.43;2.57;;;28.10;70.10;;;;;;5060820;28;20222;-73
2024/01/31 01:51:18;;;;;;;7.20;2.20;;;28.10;70.90;;;;;;5064516;28;20509;-72
2024/01/31 01:53:50;;;;;;;6.57;2.53;;;28.00;70.00;;;;;;5065965;28;20186;-71
2024/01/31 01:56:18;;;;;;;12.13;2.60;;;27.90;70.90;;;;;;5063391;28;20187;-71
2024/01/31 01:58:49;;;;;;;12.30;2.60;;;27.80;70.80;;;;;;5069120;28;20238;-73
2024/01/31 02:01:17;;;;;;;13.87;3.00;;;27.70;71.60;;;;;;5070183;28;20199;-74
2024/01/31 02:03:46;;;;;;;14.60;2.97;;;27.40;72.10;;;;;;5060003;28;20210;-73
2024/01/31 02:06:14;;;;;;;18.77;2.90;;;27.10;73.00;;;;;;5063154;28;20637;-72
2024/01/31 02:08:41;;;;;;;17.83;3.63;;;26.90;73.40;;;;;;5067532;28;20223;-72
2024/01/31 02:11:09;;;;;;;10.33;2.77;;;26.60;74.70;;;;;;5065294;28;20179;-75
2024/01/31 02:13:36;;;;;;;12.40;2.57;;;26.30;75.40;;;;;;5059548;28;20715;-74
2024/01/31 02:16:06;;;;;;;11.77;2.67;;;26.20;76.00;;;;;;5062654;28;21437;-73
2024/01/31 02:18:34;;;;;;;12.23;2.63;;;26.10;76.60;;;;;;5064643;28;20270;-74
2024/01/31 02:21:01;;;;;;;14.67;3.40;;;26.00;77.00;;;;;;5063228;28;20211;-78
2024/01/31 02:23:28;;;;;;;14.40;3.70;;;26.00;77.40;;;;;;5070067;28;20180;-72
2024/01/31 02:25:56;;;;;;;14.13;3.77;;;26.00;77.20;;;;;;5064945;28;20646;-72
2024/01/31 02:28:23;;;;;;;13.43;2.90;;;26.00;77.00;;;;;;5065806;28;20292;-74
2024/01/31 02:30:51;;;;;;;13.47;3.07;;;26.10;77.40;;;;;;5069026;28;20180;-72
2024/01/31 02:33:18;;;;;;;11.40;2.73;;;26.30;76.60;;;;;;5065373;28;20195;-74
2024/01/31 02:35:48;;;;;;;19.27;3.73;;;26.60;75.90;;;;;;5063315;28;20227;-72
2024/01/31 02:38:15;;;;;;;16.63;3.67;;;26.70;75.60;;;;;;5064008;28;20252;-70
2024/01/31 02:40:43;;;;;;;16.83;3.13;;;26.60;75.00;;;;;;5062024;28;20183;-73
2024/01/31 02:43:13;;;;;;;12.97;3.33;;;26.70;75.20;;;;;;5063036;28;20196;-72
2024/01/31 02:45:40;;;;;;;16.13;3.20;;;26.80;74.90;;;;;;5065555;28;20202;-73
2024/01/31 02:48:08;;;;;;;9.97;2.50;;;26.60;74.80;;;;;;5057441;28;20212;-71
2024/01/31 02:50:36;;;;;;;13.07;3.20;;;26.40;75.70;;;;;;5064398;28;20186;-72
2024/01/31 02:53:03;;;;;;;13.83;3.00;;;26.40;76.10;;;;;;5062417;28;20696;-79
2024/01/31 02:55:30;;;;;;;12.73;3.17;;;26.20;76.50;;;;;;5063571;28;20187;-76
2024/01/31 02:57:58;;;;;;;12.73;3.03;;;26.10;77.00;;;;;;5060183;28;20214;-77
2024/01/31 03:00:25;;;;;;;13.17;3.43;;;26.10;77.60;;;;;;5068547;28;20175;-73
2024/01/31 03:02:52;;;;;;;15.20;2.40;;;26.20;77.00;;;;;;5066880;28;20179;-76
2024/01/31 03:05:20;;;;;;;9.43;2.73;;;26.10;77.50;;;;;;5066055;28;20197;-77
2024/01/31 03:07:47;;;;;;;12.00;2.20;;;26.10;77.40;;;;;;5063529;28;20212;-75
2024/01/31 03:10:14;;;;;;;14.73;2.60;;;26.60;76.70;;;;;;5070725;28;20190;-74
2024/01/31 03:12:42;;;;;;;14.50;2.67;;;27.00;74.30;;;;;;5070129;28;20217;-78
2024/01/31 03:15:12;;;;;;;10.93;3.03;;;27.00;73.60;;;;;;5064291;28;20241;-77
2024/01/31 03:17:40;;;;;;;15.43;2.87;;;26.80;74.30;;;;;;5066672;28;20176;-73
2024/01/31 03:20:11;;;;;;;9.33;2.50;;;26.80;74.40;;;;;;5072174;28;20179;-73
2024/01/31 03:22:39;;;;;;;12.17;2.67;;;26.60;74.30;;;;;;5074053;28;20175;-74
2024/01/31 03:25:07;;;;;;;9.70;2.57;;;26.60;74.20;;;;;;5065946;28;20202;-76
2024/01/31 03:27:35;;;;;;;12.03;2.93;;;26.70;73.70;;;;;;5062877;28;20203;-73
2024/01/31 03:30:02;;;;;;;15.57;3.43;;;26.60;73.10;;;;;;5067680;28;20539;-75
2024/01/31 03:32:32;;;;;;;17.30;3.13;;;26.50;73.40;;;;;;5067157;28;20657;-73
2024/01/31 03:34:59;;;;;;;13.20;2.80;;;26.80;73.00;;;;;;5067082;28;20230;-74
2024/01/31 03:37:27;;;;;;;13.87;2.87;;;27.00;72.20;;;;;;5069281;28;20262;-75
2024/01/31 03:39:54;;;;;;;15.50;3.00;;;27.10;71.40;;;;;;5068887;28;20179;-72
2024/01/31 03:42:22;;;;;;;17.10;3.47;;;27.10;71.50;;;;;;5065823;28;20548;-73
2024/01/31 03:44:49;;;;;;;10.83;2.57;;;27.20;70.70;;;;;;5064744;28;20208;-71
2024/01/31 03:47:16;;;;;;;12.50;2.47;;;27.30;70.50;;;;;;5068843;28;20214;-76
2024/01/31 03:49:45;;;;;;;14.67;3.50;;;27.40;70.00;;;;;;5058950;28;20194;-75
2024/01/31 03:52:13;;;;;;;17.13;2.80;;;27.40;69.50;;;;;;5065685;28;20194;-75
2024/01/31 03:54:40;;;;;;;12.93;2.80;;;27.60;69.80;;;;;;5073024;28;20182;-74
2024/01/31 03:57:07;;;;;;;18.20;3.20;;;27.90;68.10;;;;;;5070446;28;20176;-77
2024/01/31 03:59:35;;;;;;;13.37;3.37;;;28.00;67.50;;;;;;5071567;28;20187;-74
2024/01/31 04:02:02;;;;;;;12.67;3.00;;;28.20;67.30;;;;;;5066238;28;20172;-77
2024/01/31 04:04:30;;;;;;;17.67;2.87;;;28.50;66.20;;;;;;5055583;28;20614;-74
2024/01/31 04:06:57;;;;;;;13.17;2.67;;;28.30;66.30;;;;;;5061616;28;20214;-76
2024/01/31 04:09:24;;;;;;;16.37;2.90;;;28.40;66.10;;;;;;5058047;28;20184;-80
2024/01/31 04:11:51;;;;;;;15.10;2.73;;;28.50;66.20;;;;;;5071156;28;20183;-75
2024/01/31 04:14:19;;;;;;;14.83;3.17;;;28.70;65.20;;;;;;5062216;28;20229;-78
2024/01/31 04:16:48;;;;;;;13.87;3.20;;;28.80;64.50;;;;;;5061830;28;20188;-75
2024/01/31 04:19:18;;;;;;;10.83;2.63;;;29.20;64.60;;;;;;5057216;28;20545;-77
2024/01/31 04:21:45;;;;;;;8.67;2.27;;;28.90;64.10;;;;;;5065889;28;20179;-75
2024/01/31 04:24:13;;;;;;;11.90;2.57;;;28.80;64.60;;;;;;5054447;28;20685;-73
2024/01/31 04:26:46;;;;;;;13.33;2.60;;;29.10;63.90;;;;;;5072500;28;20297;-72
2024/01/31 04:29:13;;;;;;;13.87;2.67;;;29.30;62.90;;;;;;5059787;28;20187;-77
2024/01/31 04:31:40;;;;;;;15.67;2.80;;;29.00;64.30;;;;;;5059825;28;20272;-72
2024/01/31 04:34:09;;;;;;;12.00;2.83;;;29.00;64.40;;;;;;5059087;28;20182;-72
2024/01/31 04:36:36;;;;;;;10.57;2.40;;;29.40;63.00;;;;;;5060413;28;20239;-76
2024/01/31 04:39:03;;;;;;;16.17;3.00;;;29.80;62.40;;;;;;5057678;28;20274;-72
2024/01/31 04:41:31;;;;;;;16.33;2.50;;;29.80;61.80;;;;;;5059858;28;20194;-76
2024/01/31 04:43:58;;;;;;;14.33;2.53;;;29.70;61.70;;;;;;5055806;28;20610;-73
2024/01/31 04:46:25;;;;;;;15.07;2.50;;;29.30;63.60;;;;;;5060983;28;20270;-73
2024/01/31 04:48:53;;;;;;;11.45;2.42;;;29.70;62.30;;;;;;5063001;28;20599;-70
2024/01/31 04:51:20;;;;;;;12.13;2.33;;;30.10;61.60;;;;;;5068115;28;20237;-73
2024/01/31 04:53:47;;;;;;;12.55;2.70;;;30.30;60.80;;;;;;5061235;28;20184;-72
2024/01/31 04:56:16;;;;;;;10.82;2.80;;;30.40;59.80;;;;;;5055905;28;20302;-73
2024/01/31 04:58:43;;;;;;;11.88;2.60;;;29.30;63.30;;;;;;5057620;28;20190;-73
2024/01/31 05:01:11;;;;;;;15.83;2.50;;;28.80;65.10;;;;;;5067398;28;20204;-71
2024/01/31 05:03:38;;;;;;;15.63;3.00;;;28.30;66.50;;;;;;5066994;28;20233;-73
2024/01/31 05:06:06;;;;;;;12.73;2.90;;;28.10;66.70;;;;;;5059799;28;20195;-72
2024/01/31 05:08:33;;;;;;;13.20;2.57;;;27.70;68.60;;;;;;5068221;28;20769;-74
2024/01/31 05:11:00;;;;;;;12.87;2.77;;;27.80;68.60;;;;;;5064144;28;20279;-72
2024/01/31 05:13:28;;;;;;;15.00;2.67;;;28.40;67.60;;;;;;5057549;28;20187;-72
2024/01/31 05:15:58;;;;;;;12.00;2.93;;;28.80;65.50;;;;;;5056415;28;20175;-75
2024/01/31 05:18:25;;;;;;;9.90;2.20;;;28.70;66.10;;;;;;5055757;28;20218;-72
2024/01/31 05:20:55;;;;;;;9.40;1.87;;;28.80;66.70;;;;;;5055286;28;20214;-75
2024/01/31 05:23:23;;;;;;;10.23;2.40;;;29.80;63.80;;;;;;5061174;28;20187;-74
2024/01/31 05:25:50;;;;;;;14.83;2.97;;;30.60;61.60;;;;;;5055647;28;20192;-71
2024/01/31 05:28:19;;;;;;;10.10;2.60;;;30.50;61.00;;;;;;5055831;28;20219;-73
2024/01/31 05:30:46;;;;;;;7.45;2.13;;;29.70;63.50;;;;;;5054165;28;20533;-73
2024/01/31 05:33:15;;;;;;;9.20;2.05;;;30.30;62.30;;;;;;5054583;28;20192;-72
2024/01/31 05:35:43;;;;;;;8.73;2.10;;;30.10;62.00;;;;;;5055639;28;20255;-74
2024/01/31 05:38:10;;;;;;;6.78;2.13;;;29.70;63.20;;;;;;5069482;28;20183;-72
2024/01/31 05:40:38;;;;;;;8.23;2.53;;;29.50;64.30;;;;;;5061213;28;20198;-71
2024/01/31 05:43:05;;;;;;;9.40;2.13;;;29.20;64.80;;;;;;5081223;28;20194;-77
2024/01/31 05:45:35;;;;;;;13.17;2.47;;;28.80;65.60;;;;;;5061084;28;20196;-72
2024/01/31 05:48:03;;;;;;;13.33;2.93;;;28.10;68.20;;;;;;5061116;28;20215;-72
2024/01/31 05:50:30;;;;;;;9.07;2.43;;;28.40;68.50;;;;;;5058112;28;20330;-72
2024/01/31 05:52:57;;;;;;;12.83;2.73;;;29.40;65.60;;;;;;5056066;28;20199;-74
2024/01/31 05:55:25;;;;;;;10.77;2.63;;;30.50;61.80;;;;;;5061275;28;20187;-72
2024/01/31 05:57:52;;;;;;;10.77;2.95;;;30.90;61.60;;;;;;5058013;28;20198;-72
2024/01/31 06:00:20;;;;;;;13.38;3.13;;;30.30;60.80;;;;;;5054031;28;20638;-71
2024/01/31 06:02:47;;;;;;;11.63;2.60;;;29.20;63.90;;;;;;5066809;28;20187;-72
2024/01/31 06:05:14;;;;;;;11.57;2.70;;;29.50;64.20;;;;;;5068498;28;20712;-74
2024/01/31 06:07:42;;;;;;;14.47;3.07;;;29.40;63.80;;;;;;5058638;28;20245;-70
2024/01/31 06:10:09;;;;;;;15.93;3.20;;;29.00;64.60;;;;;;5061746;28;20199;-69
2024/01/31 06:12:36;;;;;;;15.03;3.17;;;28.10;67.10;;;;;;5060555;28;20237;-72
2024/01/31 06:15:04;;;;;;;12.00;2.80;;;27.50;68.90;;;;;;5067444;28;20180;-71
2024/01/31 06:17:31;;;;;;;11.57;2.87;;;27.40;69.80;;;;;;5064811;28;20257;-71
2024/01/31 06:19:59;;;;;;;10.33;2.47;;;27.30;70.20;;;;;;5071292;28;20556;-74
2024/01/31 06:22:26;;;;;;;11.43;3.07;;;27.10;70.60;;;;;;5068927;28;20184;-72
2024/01/31 06:24:53;;;;;;;11.80;2.77;;;27.20;70.50;;;;;;5067436;28;20175;-71
2024/01/31 06:27:21;;;;;;;15.57;2.93;;;27.20;70.20;;;;;;5057347;28;20804;-71
2024/01/31 06:29:48;;;;;;;16.60;3.00;;;26.90;70.90;;;;;;5058835;28;20248;-72
2024/01/31 06:32:21;;;;;;;14.53;2.57;;;26.50;71.10;;;;;;5063178;28;20187;-73
2024/01/31 06:34:52;;;;;;;12.63;2.73;;;26.30;72.20;;;;;;5055544;28;20215;-72
2024/01/31 06:37:19;;;;;;;12.53;3.20;;;26.40;71.70;;;;;;5057796;28;20191;-72
2024/01/31 06:39:47;;;;;;;11.33;2.90;;;26.50;71.80;;;;;;5055556;28;20191;-73
2024/01/31 06:42:14;;;;;;;11.20;2.63;;;26.60;72.00;;;;;;5057439;28;20252;-72
2024/01/31 06:44:41;;;;;;;13.97;3.10;;;26.70;72.00;;;;;;5056726;28;20176;-71
2024/01/31 06:47:09;;;;;;;16.03;3.17;;;26.30;72.10;;;;;;5058743;28;20231;-72
2024/01/31 06:49:36;;;;;;;16.90;2.70;;;26.10;72.90;;;;;;5060822;28;20640;-75
2024/01/31 06:52:06;;;;;;;15.70;3.10;;;26.10;73.50;;;;;;5070900;28;20210;-71
2024/01/31 06:54:33;;;;;;;12.43;2.57;;;26.00;73.50;;;;;;5057048;28;20191;-70
2024/01/31 06:57:00;;;;;;;16.00;3.17;;;25.80;74.50;;;;;;5060193;28;20190;-72
2024/01/31 06:59:28;;;;;;;13.80;3.30;;;25.80;74.40;;;;;;5067266;28;20180;-72
2024/01/31 07:01:55;;;;;;;8.53;2.47;;;25.80;75.00;;;;;;5063135;28;20191;-72
2024/01/31 07:04:22;;;;;;;16.00;2.53;;;25.70;74.70;;;;;;5065567;28;20187;-73
2024/01/31 07:06:50;;;;;;;16.87;3.20;;;25.50;74.90;;;;;;5072941;28;20308;-71
2024/01/31 07:09:17;;;;;;;16.07;2.97;;;25.30;75.90;;;;;;5062794;28;20590;-73
2024/01/31 07:11:45;;;;;;;14.90;3.90;;;25.30;76.50;;;;;;5066038;28;20179;-74
2024/01/31 07:14:12;;;;;;;13.77;3.10;;;25.40;76.70;;;;;;5057263;28;20187;-73
2024/01/31 07:16:40;;;;;;;15.77;3.23;;;25.30;77.20;;;;;;5073411;28;20542;-72
2024/01/31 07:19:07;;;;;;;14.20;3.27;;;25.30;77.30;;;;;;5065821;28;20184;-72
2024/01/31 07:21:34;;;;;;;15.83;3.13;;;25.10;77.40;;;;;;5067040;28;20656;-72
2024/01/31 07:24:02;;;;;;;12.53;3.33;;;24.90;77.90;;;;;;5064634;28;20619;-73
2024/01/31 07:26:32;;;;;;;13.07;2.83;;;24.80;79.00;;;;;;5081267;28;20178;-73
2024/01/31 07:29:01;;;;;;;15.50;3.30;;;24.70;78.90;;;;;;5072632;28;20223;-73
2024/01/31 07:31:28;;;;;;;14.13;2.90;;;24.70;79.60;;;;;;5073581;28;20191;-73
2024/01/31 07:33:55;;;;;;;15.30;2.83;;;24.60;79.50;;;;;;5070531;28;20186;-72
2024/01/31 07:36:23;;;;;;;13.23;2.73;;;24.50;79.60;;;;;;5075700;28;20231;-74
2024/01/31 07:38:50;;;;;;;17.93;3.53;;;24.40;80.30;;;;;;5067046;28;20187;-72
2024/01/31 07:41:18;;;;;;;24.43;4.07;;;24.30;81.00;;;;;;5058643;28;20719;-73
2024/01/31 07:43:45;;;;;;;15.23;3.30;;;24.30;81.40;;;;;;5057607;28;20277;-74
2024/01/31 07:46:12;;;;;;;24.07;3.80;;;24.20;81.40;;;;;;5063648;28;20191;-71
2024/01/31 07:48:39;;;;;;;20.80;4.10;;;24.10;82.10;;;;;;5071301;28;20375;-74
2024/01/31 07:51:07;;;;;;;17.37;3.80;;;24.10;82.00;;;;;;5059995;28;20186;-71
2024/01/31 07:53:34;;;;;;;15.97;3.37;;;24.00;82.20;;;;;;5078258;28;20196;-73
2024/01/31 07:56:03;;;;;;;18.07;3.77;;;24.00;82.80;;;;;;5080492;28;20189;-71
2024/01/31 07:58:31;;;;;;;17.80;3.97;;;24.00;82.80;;;;;;5073366;28;20188;-73
2024/01/31 08:00:59;;;;;;;14.53;3.83;;;24.00;82.70;;;;;;5063958;28;20196;-70
2024/01/31 08:03:26;;;;;;;15.97;3.87;;;23.80;83.00;;;;;;5079580;28;20594;-75
2024/01/31 08:05:53;;;;;;;13.17;3.80;;;23.80;83.30;;;;;;5074914;28;20189;-73
2024/01/31 08:08:21;;;;;;;19.37;3.97;;;23.70;83.70;;;;;;5075094;28;20693;-71
2024/01/31 08:10:48;;;;;;;26.73;4.37;;;23.70;83.80;;;;;;5088534;28;20230;-72
2024/01/31 08:13:16;;;;;;;14.47;4.03;;;23.50;83.90;;;;;;5083383;28;20221;-74
2024/01/31 08:15:43;;;;;;;23.60;4.63;;;23.50;84.50;;;;;;5079695;28;20184;-79
2024/01/31 08:18:10;;;;;;;15.53;4.37;;;23.60;84.70;;;;;;5079577;28;20198;-79
2024/01/31 08:20:38;;;;;;;15.20;4.07;;;23.50;84.40;;;;;;5076470;28;20225;-76
2024/01/31 08:23:05;;;;;;;12.57;3.87;;;23.50;84.50;;;;;;5074625;28;20251;-75
2024/01/31 08:25:33;;;;;;;18.37;4.23;;;23.30;84.70;;;;;;5074700;28;20262;-77
2024/01/31 08:28:00;;;;;;;14.07;3.97;;;23.30;85.10;;;;;;5074038;28;20215;-80
2024/01/31 08:30:27;;;;;;;19.80;4.43;;;23.30;85.20;;;;;;5074001;28;20557;-77
2024/01/31 08:32:55;;;;;;;21.27;4.60;;;23.30;85.20;;;;;;5076460;28;20554;-78
2024/01/31 08:35:22;;;;;;;20.03;5.23;;;23.30;85.30;;;;;;5085013;28;20231;-74
2024/01/31 08:37:49;;;;;;;15.43;4.20;;;23.30;85.60;;;;;;5075514;28;20180;-76
2024/01/31 08:40:17;;;;;;;18.73;4.67;;;23.20;85.80;;;;;;5077109;28;20248;-79
2024/01/31 08:42:44;;;;;;;12.80;4.43;;;23.20;85.80;;;;;;5079643;28;20665;-73
2024/01/31 08:45:12;;;;;;;16.37;4.80;;;23.20;85.90;;;;;;5083847;28;20183;-75
2024/01/31 08:47:39;;;;;;;17.57;4.33;;;23.10;86.20;;;;;;5074133;28;20245;-75
2024/01/31 08:50:10;;;;;;;17.70;4.50;;;23.10;86.30;;;;;;5073112;28;20183;-76
2024/01/31 08:52:37;;;;;;;15.47;4.43;;;23.00;86.20;;;;;;5079343;28;20183;-77
2024/01/31 08:55:05;;;;;;;15.80;4.57;;;22.90;86.40;;;;;;5073691;28;20203;-75
2024/01/31 08:57:33;;;;;;;16.13;4.37;;;22.90;86.70;;;;;;5083833;28;20726;-78
2024/01/31 09:00:00;;;;;;;18.53;5.00;;;22.90;87.30;;;;;;5074721;28;20552;-77
2024/01/31 09:02:28;;;;;;;16.53;5.40;;;22.90;87.70;;;;;;5072848;28;20183;-74
2024/01/31 09:04:55;;;;;;;16.67;4.43;;;22.80;88.00;;;;;;5072348;28;20202;-74
2024/01/31 09:07:22;;;;;;;11.57;3.73;;;22.80;88.00;;;;;;5076645;28;20199;-75
2024/01/31 09:09:50;;;;;;;15.87;4.63;;;22.70;87.90;;;;;;5080995;28;20190;-79
2024/01/31 09:12:17;;;;;;;14.77;5.03;;;22.60;87.90;;;;;;5074123;28;20621;-77
2024/01/31 09:14:44;;;;;;;14.27;4.70;;;22.70;88.10;;;;;;5083164;28;20228;-73
2024/01/31 09:17:12;;;;;;;19.03;4.93;;;22.70;88.10;;;;;;5063529;28;20190;-75
2024/01/31 09:19:40;;;;;;;14.43;4.50;;;22.80;88.00;;;;;;5081198;28;20232;-79
2024/01/31 09:22:08;;;;;;;17.20;4.40;;;22.70;87.90;;;;;;5084794;28;20175;-76
2024/01/31 09:24:35;;;;;;;15.27;4.23;;;22.80;87.60;;;;;;5074448;28;20236;-73
2024/01/31 09:27:03;;;;;;;13.53;4.07;;;22.80;87.30;;;;;;5074126;28;20684;-75
2024/01/31 09:29:30;;;;;;;18.97;4.43;;;22.80;87.20;;;;;;5074154;28;20644;-76
2024/01/31 09:31:59;;;;;;;16.73;4.77;;;22.80;87.20;;;;;;5081179;28;20176;-73
2024/01/31 09:34:27;;;;;;;13.23;4.30;;;22.80;87.00;;;;;;5062612;28;20270;-74
2024/01/31 09:36:54;;;;;;;14.93;4.20;;;22.80;86.90;;;;;;5058020;28;20526;-72
2024/01/31 09:39:21;;;;;;;14.30;4.50;;;22.80;86.80;;;;;;5070361;28;20338;-71
2024/01/31 09:41:49;;;;;;;14.60;4.63;;;22.80;86.80;;;;;;5079830;28;20182;-71
2024/01/31 09:44:18;;;;;;;19.87;4.73;;;22.80;87.00;;;;;;5072618;28;20193;-73
2024/01/31 09:46:47;;;;;;;16.57;4.33;;;22.70;86.80;;;;;;5075334;28;20190;-75
2024/01/31 09:49:14;;;;;;;19.73;5.03;;;22.80;86.80;;;;;;5081615;28;20192;-72
2024/01/31 09:51:42;;;;;;;19.23;4.77;;;22.80;87.00;;;;;;5082007;28;20638;-72
2024/01/31 09:54:10;;;;;;;20.23;4.90;;;22.80;86.80;;;;;;5077546;28;20664;-71
2024/01/31 09:56:37;;;;;;;19.27;5.10;;;22.80;86.50;;;;;;5076977;28;20183;-72
2024/01/31 09:59:05;;;;;;;14.13;4.53;;;22.80;86.60;;;;;;5074343;28;20201;-70
2024/01/31 10:01:33;;;;;;;17.17;4.60;;;22.80;86.50;;;;;;5076804;28;20241;-72
2024/01/31 10:04:00;;;;;;;16.67;4.27;;;22.80;86.60;;;;;;5063492;28;20236;-72
2024/01/31 10:06:28;;;;;;;19.83;4.97;;;22.80;86.50;;;;;;5072923;28;20178;-74
2024/01/31 10:08:59;;;;;;;15.13;5.17;;;22.80;86.30;;;;;;5073147;28;20233;-72
2024/01/31 10:11:27;;;;;;;12.53;3.87;;;22.80;86.20;;;;;;5077384;28;20551;-80
2024/01/31 10:13:55;;;;;;;22.97;4.90;;;22.80;86.00;;;;;;5071281;28;20206;-75
2024/01/31 10:16:23;;;;;;;16.40;4.10;;;22.80;85.70;;;;;;5072696;28;20202;-76
2024/01/31 10:18:51;;;;;;;23.73;4.23;;;22.80;85.70;;;;;;5073574;28;20171;-77
2024/01/31 10:21:19;;;;;;;15.80;3.93;;;22.80;85.00;;;;;;5074985;28;20275;-76
2024/01/31 10:24:00;;;;;;;13.73;4.07;;;22.80;84.50;;;;;;5075446;28;20201;-75
2024/01/31 10:26:28;;;;;;;15.80;4.13;;;22.90;84.40;;;;;;5074578;28;20187;-75
2024/01/31 10:29:01;;;;;;;17.60;3.63;;;22.90;83.90;;;;;;5076353;28;20258;-72
2024/01/31 10:31:30;;;;;;;16.27;3.70;;;22.90;84.10;;;;;;5076404;28;20233;-74
2024/01/31 10:33:59;;;;;;;17.20;4.07;;;22.90;84.00;;;;;;5071749;28;20191;-78
2024/01/31 10:36:28;;;;;;;16.20;4.03;;;22.90;84.10;;;;;;5073641;28;20210;-72
2024/01/31 10:38:56;;;;;;;18.57;4.07;;;22.90;84.20;;;;;;5076493;28;20183;-76
2024/01/31 10:41:24;;;;;;;13.70;3.83;;;22.90;84.10;;;;;;5078677;28;20211;-76
2024/01/31 10:43:53;;;;;;;22.73;4.93;;;22.90;84.30;;;;;;5081952;28;20170;-71
2024/01/31 10:46:20;;;;;;;16.97;4.23;;;22.90;84.20;;;;;;5078301;28;20657;-76
2024/01/31 10:48:47;;;;;;;17.70;4.40;;;23.00;84.40;;;;;;5082702;28;20608;-74
2024/01/31 10:51:16;;;;;;;14.47;3.70;;;23.00;84.10;;;;;;5071149;28;20297;-71
2024/01/31 10:53:44;;;;;;;17.47;4.70;;;23.00;84.10;;;;;;5077409;28;20181;-73
2024/01/31 10:56:12;;;;;;;24.53;4.40;;;23.00;84.10;;;;;;5076869;28;20191;-73
2024/01/31 10:58:40;;;;;;;15.53;4.07;;;23.00;84.10;;;;;;5080111;28;20629;-74
2024/01/31 11:01:12;;;;;;;21.60;4.40;;;22.90;84.00;;;;;;5067422;28;20189;-75
2024/01/31 11:03:46;;;;;;;16.40;4.53;;;23.00;84.10;;;;;;5075144;28;20190;-72
2024/01/31 11:06:14;;;;;;;13.83;3.53;;;23.00;83.60;;;;;;5058401;28;20175;-71
2024/01/31 11:08:44;;;;;;;16.47;4.23;;;23.00;83.50;;;;;;5080717;28;20211;-72
2024/01/31 11:11:12;;;;;;;26.23;5.13;;;23.10;83.30;;;;;;5081755;28;20228;-71
2024/01/31 11:13:39;;;;;;;12.30;4.10;;;23.10;83.20;;;;;;5079667;28;20190;-71
2024/01/31 11:16:07;;;;;;;17.17;3.20;;;23.20;83.10;;;;;;5088527;28;20182;-74
2024/01/31 11:18:37;;;;;;;15.90;4.57;;;23.20;82.80;;;;;;5086987;28;20182;-74
2024/01/31 11:21:09;;;;;;;22.27;3.83;;;23.10;82.40;;;;;;5076813;28;20179;-71
2024/01/31 11:23:36;;;;;;;17.40;4.13;;;23.10;81.70;;;;;;5075589;28;20175;-73
2024/01/31 11:26:03;;;;;;;16.90;3.67;;;23.20;81.30;;;;;;5076498;28;20190;-72
2024/01/31 11:28:31;;;;;;;19.40;3.17;;;23.20;80.80;;;;;;5075696;28;20207;-70
2024/01/31 11:31:00;;;;;;;15.60;3.30;;;23.20;80.20;;;;;;5069466;28;20192;-71
2024/01/31 11:33:27;;;;;;;19.37;3.53;;;23.20;79.90;;;;;;5077997;28;20187;-71
2024/01/31 11:35:55;;;;;;;19.50;3.20;;;23.30;79.60;;;;;;5064053;28;20251;-72
2024/01/31 11:38:22;;;;;;;16.90;3.63;;;23.30;79.20;;;;;;5073997;28;20202;-70
2024/01/31 11:40:53;;;;;;;19.27;3.73;;;23.30;79.10;;;;;;5076116;28;20286;-72
2024/01/31 11:43:21;;;;;;;14.23;3.57;;;23.30;79.10;;;;;;5076997;28;20267;-73
2024/01/31 11:45:48;;;;;;;11.97;3.00;;;23.30;79.00;;;;;;5076706;28;20189;-73
2024/01/31 11:48:16;;;;;;;16.17;3.73;;;23.30;78.80;;;;;;5077242;28;20285;-73
2024/01/31 11:50:43;;;;;;;12.23;3.23;;;23.30;78.40;;;;;;5075769;28;20179;-76
2024/01/31 11:53:11;;;;;;;21.30;3.97;;;23.30;78.30;;;;;;5075643;28;20237;-81
2024/01/31 11:55:39;;;;;;;13.37;3.17;;;23.40;77.90;;;;;;5066262;28;20207;-72
2024/01/31 11:58:07;;;;;;;17.20;4.17;;;23.40;77.90;;;;;;5075408;28;20266;-74
2024/01/31 12:00:36;;;;;;;14.43;3.47;;;23.30;77.80;;;;;;5075644;28;20175;-74
2024/01/31 12:03:03;;;;;;;22.37;4.47;;;23.40;78.00;;;;;;5082905;28;20581;-73
2024/01/31 12:05:31;;;;;;;12.90;3.90;;;23.50;77.90;;;;;;5068753;28;20205;-74
2024/01/31 12:07:59;;;;;;;20.97;4.20;;;23.40;77.80;;;;;;5066991;28;20681;-72
2024/01/31 12:10:27;;;;;;;16.20;3.40;;;23.50;77.70;;;;;;5072871;28;20191;-72
2024/01/31 12:12:57;;;;;;;15.20;3.60;;;23.50;77.80;;;;;;5067471;28;20187;-73
2024/01/31 12:15:25;;;;;;;10.93;2.80;;;23.50;77.70;;;;;;5080830;28;20186;-74
2024/01/31 12:17:53;;;;;;;17.33;3.53;;;23.40;77.70;;;;;;5078388;28;20549;-70
2024/01/31 12:20:20;;;;;;;22.13;3.77;;;23.40;77.80;;;;;;5074221;28;20637;-74
2024/01/31 12:22:48;;;;;;;20.27;3.70;;;23.40;77.90;;;;;;5075559;28;20191;-73
2024/01/31 12:25:16;;;;;;;19.53;4.00;;;23.40;77.90;;;;;;5074414;28;20187;-71
2024/01/31 12:27:44;;;;;;;16.90;5.00;;;23.40;78.30;;;;;;5074935;28;20348;-74
2024/01/31 12:30:12;;;;;;;27.23;5.87;;;23.40;79.70;;;;;;5074830;28;20697;-77
2024/01/31 12:32:39;;;;;;;29.63;7.00;;;23.40;80.80;;;;;;5085920;28;20629;-75
2024/01/31 12:35:08;;;;;;;19.17;5.90;;;23.30;81.80;;;;;;5062405;28;20617;-72
2024/01/31 12:37:35;;;;;;;20.13;6.07;;;23.20;82.70;;;;;;5068768;28;20591;-70
2024/01/31 12:40:03;;;;;;;24.23;6.93;;;23.10;83.30;;;;;;5074522;28;20180;-72